WetterOnline ( https://www.wetteronline.de )

Wetter aktuell Horben

Aktuelles Wetter: Freiburg/Flugplatz (236m)

6-stündlich | Neueste Meldungen
Ortszeit Temperatur Wetter
Fr, 24.01. 19:00 0.6° C wolkenlos
Fr, 24.01. 13:00 3.2° C wolkenlos
Fr, 24.01. 7:00 -3.3° C bedeckt
Fr, 24.01. 1:00 -2.1° C bedeckt
Do, 23.01. 19:00 -2.0° C bedeckt
Do, 23.01. 13:00 -2.4° C bedeckt
Do, 23.01. 7:00 -2.8° C bedeckt
Do, 23.01. 1:00 -2.4° C bedeckt
Ortszeit Temperatur Wetter
Fr, 24.01. 23:30 -1.1° C bewölkt
Fr, 24.01. 23:20 -1.1° C bewölkt
Fr, 24.01. 23:10 -1.5° C wolkig
Fr, 24.01. 23:00 -0.5° C wolkig
Fr, 24.01. 22:50 -0.5° C wolkig
Fr, 24.01. 22:40 -0.7° C wolkig
Fr, 24.01. 22:30 -1.1° C wolkig
Fr, 24.01. 22:00 -1.2° C wolkig
Fr, 24.01. 21:00 -0.6° C bedeckt
Fr, 24.01. 20:00 -0.5° C fast wolkenlos
Ortszeit Relative Feuchte Sichtweite
Fr, 24.01. 19:00 87% 6 km
Fr, 24.01. 13:00 67% 10 km
Fr, 24.01. 7:00 91% 4.1 km
Fr, 24.01. 1:00 85% 6 km
Do, 23.01. 19:00 86% 5.0 km
Do, 23.01. 13:00 88% 5.0 km
Do, 23.01. 7:00 92% 4.9 km
Do, 23.01. 1:00 96% 2.4 km
Ortszeit Relative Feuchte Sichtweite
Fr, 24.01. 23:30 95% 3.4 km
Fr, 24.01. 23:20 95% -
Fr, 24.01. 23:10 96% -
Fr, 24.01. 23:00 96% 4.0 km
Fr, 24.01. 22:50 96% -
Fr, 24.01. 22:40 95% -
Fr, 24.01. 22:30 94% 4.1 km
Fr, 24.01. 22:00 94% 4.2 km
Fr, 24.01. 21:00 92% 5.0 km
Fr, 24.01. 20:00 90% 5.0 km
Ortszeit Niederschlagsmenge Niederschlagsart
Fr, 24.01. 19:00 0.0 l/m2 in 12 Std. -
Fr, 24.01. 13:00 0.0 l/m2 in 6 Std. -
Fr, 24.01. 7:00 0.0 l/m2 in 12 Std. -
Fr, 24.01. 1:00 0.0 l/m2 in 6 Std. -
Do, 23.01. 19:00 0.0 l/m2 in 12 Std. -
Do, 23.01. 13:00 0.0 l/m2 in 6 Std. -
Do, 23.01. 7:00 0.1 l/m2 in 12 Std. -
Do, 23.01. 1:00 0.1 l/m2 in 6 Std. Schnee, Sprühregen
Ortszeit Niederschlagsmenge Niederschlagsart
Fr, 24.01. 23:30 0.0 l/m2 in 1 Std. -
Fr, 24.01. 23:20 keine Meldung -
Fr, 24.01. 23:10 keine Meldung -
Fr, 24.01. 23:00 0.0 l/m2 in 1 Std. -
Fr, 24.01. 22:50 keine Meldung -
Fr, 24.01. 22:40 keine Meldung -
Fr, 24.01. 22:30 0.0 l/m2 in 1 Std. -
Fr, 24.01. 22:00 0.0 l/m2 in 1 Std. -
Fr, 24.01. 21:00 keine Meldung -
Fr, 24.01. 20:00 keine Meldung -
Ortszeit Stärke Spitze Richtung
km/h Bft. km/h Grad Sektor
Fr, 24.01. 19:00 0 0 7 - -
Fr, 24.01. 13:00 6 1 11 300° NW
Fr, 24.01. 7:00 6 1 7 10° N
Fr, 24.01. 1:00 7 2 18 180° S
Do, 23.01. 19:00 6 1 13 290° W
Do, 23.01. 13:00 4 1 11 310° NW
Do, 23.01. 7:00 4 1 11 310° NW
Do, 23.01. 1:00 7 2 11 330° NW
Ortszeit Stärke Spitze Richtung
km/h Bft. km/h Grad Sektor
Fr, 24.01. 23:30 4 1 4 180° S
Fr, 24.01. 23:20 4 1 - 180° S
Fr, 24.01. 23:10 0 0 - - -
Fr, 24.01. 23:00 0 0 4 - -
Fr, 24.01. 22:50 2 1 - 250° W
Fr, 24.01. 22:40 2 1 - 250° W
Fr, 24.01. 22:30 4 1 4 210° SW
Fr, 24.01. 22:00 2 1 6 40° NO
Fr, 24.01. 21:00 4 1 7 220° SW
Fr, 24.01. 20:00 4 1 7 350° N
Ortszeit Untergrenze Bedeckung Gattung
total tief tief mittel hoch
Fr, 24.01. 19:00 4800 m 0/8 0/8 - - -
Fr, 24.01. 13:00 - 0/8 0/8 - - -
Fr, 24.01. 7:00 150 m 8/8 8/8 - - -
Fr, 24.01. 1:00 240 m 8/8 8/8 - - -
Do, 23.01. 19:00 240 m 8/8 8/8 - - -
Do, 23.01. 13:00 210 m 8/8 8/8 - - -
Do, 23.01. 7:00 150 m 8/8 8/8 - - -
Do, 23.01. 1:00 60 m 8/8 8/8 - - -
Ortszeit Bedeckungsgrad in Achtel und Wolkenuntergrenze
Fr, 24.01. 23:30 5(3000m) 8(7800m) 8(8400m)
Fr, 24.01. 23:20 5(3000m) 8(7800m) 8(8400m)
Fr, 24.01. 23:10 3(3300m) 8(7800m) 8(8400m)
Fr, 24.01. 23:00 7(7800m) 8(9000m)
Fr, 24.01. 22:50 7(7800m) 8(9000m)
Fr, 24.01. 22:40 7(7800m) 7(9000m)
Fr, 24.01. 22:30 1(3300m) 6(8100m) 7(9000m)
Fr, 24.01. 22:00 1(3300m) 8(8100m) 8(8700m)
Fr, 24.01. 21:00 8(3300m) 8(9000m)
Fr, 24.01. 20:00 2(8700m)
Ortszeit Luftdruck NN (hPa) Tendenz (hPa in 3 Std.)
Fr, 24.01. 19:00 1024 + 0,4
Fr, 24.01. 13:00 1026 - 0,7
Fr, 24.01. 7:00 1027 - 0,7
Fr, 24.01. 1:00 1029 - 0,4
Do, 23.01. 19:00 1029 + 0,2
Do, 23.01. 13:00 1032 - 1,7
Do, 23.01. 7:00 1033 - 1,5
Do, 23.01. 1:00 1036 0,0
Ortszeit Luftdruck NN (hPa) Tendenz (hPa in 3 Std.)
Fr, 24.01. 23:30 1025 + 0,2
Fr, 24.01. 23:20 1025 keine Meldung
Fr, 24.01. 23:10 1025 keine Meldung
Fr, 24.01. 23:00 1025 + 0,3
Fr, 24.01. 22:50 1025 keine Meldung
Fr, 24.01. 22:40 1025 keine Meldung
Fr, 24.01. 22:30 1025 + 0,6
Fr, 24.01. 22:00 1025 + 0,8
Fr, 24.01. 21:00 1025 + 0,7
Fr, 24.01. 20:00 1025 + 0,8
Ortszeit Schneehöhe (cm)
Fr, 24.01. 19:00 0
Fr, 24.01. 13:00 0
Fr, 24.01. 7:00 0
Fr, 24.01. 1:00 0
Do, 23.01. 19:00 0
Do, 23.01. 13:00 0
Do, 23.01. 7:00 0
Do, 23.01. 1:00 0
Ortszeit Schneehöhe (cm)
Fr, 24.01. 23:30 0
Fr, 24.01. 23:20 0
Fr, 24.01. 23:10 0
Fr, 24.01. 23:00 0
Fr, 24.01. 22:50 0
Fr, 24.01. 22:40 0
Fr, 24.01. 22:30 0
Fr, 24.01. 22:00 0
Fr, 24.01. 21:00 -
Fr, 24.01. 20:00 -
Link zu dieser Seite / Seite empfehlen

Das Wetter in ...